Tremont City, OH

7:20 AM EST on January 29, 2015 (GMT -0500)
Snyder Park | Change Station
CLOSE
Current Station
Personal Weather Station
Location: Springfield, OH
Elevation: 919 ft
Nearby Weather Stations
Active Advisory: Freezing Rain Advisory

Elev 919 ft 39.93 °N, 83.85 °W | Updated 14 seconds ago

Ice Pellets
Ice Pellets
34.4 °F
Feels Like 31 °F
N
3.5
Wind Variable Wind from East
Gusts 6.9 mph

Today
High -- | Low -- °F
--% Chance of Precip.
Yesterday
High -- | Low -- °F
Precip. -- in
7:46 AM 5:50 PM
Waxing Gibbous, 74% visible
Pressure 29.91 in
Visibility 5.0 miles
Clouds Few 2000 ft
Scattered Clouds 2800 ft
Mostly Cloudy 4600 ft
Windchill 31 °F
Dew Point 30 °F
Humidity 83%
Rainfall 0.00 in
Snow Depth Not available.
UV 0 out of 12
Pollen .10 out of 12
Air Quality Not available.
Flu Activity Not available.
METAR KSGH 291156Z AUTO 17009KT 5SM -FZRA FEW020 SCT028 BKN046 01/M02 A2988 RMK AO2 58042 60003 70003 T00111016 10011 21027 RAE08FZRAB08 P0003 SLP129

More Conditions Fewer Conditions

Pressure 29.91 in
Visibility 5.0 miles
Clouds Few 2000 ft
Scattered Clouds 2800 ft
Mostly Cloudy 4600 ft
Windchill 31 °F
Dew Point 30 °F
Humidity 83%
Rainfall 0.00 in
Snow Depth Not available.
UV 0 out of 12
Pollen .10 out of 12
Air Quality Not available.
Flu Activity Not available.
METAR KSGH 291156Z AUTO 17009KT 5SM -FZRA FEW020 SCT028 BKN046 01/M02 A2988 RMK AO2 58042 60003 70003 T00111016 10011 21027 RAE08FZRAB08 P0003 SLP129

More Conditions Fewer Conditions

10-Day Weather Forecast

Almanac

Astronomy

Jan. 29, 2015 Rise Set
Actual Time
Civil Twilight
Nautical Twilight
Astronomical Twilight
Moon
Length of Visible Light
Length of Day
Tomorrow will be .
, % of the Moon is Illuminated

Today's Extremes

State Highs State Lows

Community

WunderPhotos

Upload Photos

1,791,420 photos uploaded!

WunderBlogs® & News

Nearby

Air Quality

  Air Quality AQ Index Pollutant
Not available.

Snow Depth

Station Depth Elevation

Earthquake Activity

City Distance Mag. Time & Date
Minimum magnitude displayed is 2.5.

Coastal Water Temperatures

Place Temperature

Nearby Weather Stations